createdAt,value
2022-08-27T00:00:44.585Z,97798.31
2022-08-27T00:03:50.590Z,97808.44
2022-08-27T00:07:00.402Z,97809.59
2022-08-27T00:10:10.652Z,97805.53
2022-08-27T00:13:18.448Z,97799.88
2022-08-27T00:16:24.808Z,97792.53
2022-08-27T00:19:31.851Z,97790.13
2022-08-27T00:22:41.627Z,97789.59
2022-08-27T00:25:49.455Z,97788.25
2022-08-27T00:28:56.025Z,97792.84
2022-08-27T00:32:03.617Z,97793.03
2022-08-27T00:35:11.146Z,97795.97
2022-08-27T00:38:21.667Z,97805.09
2022-08-27T00:41:28.365Z,97811.56
2022-08-27T00:44:35.774Z,97808.22
2022-08-27T00:47:49.991Z,97802.22
2022-08-27T00:51:03.100Z,97803.88
2022-08-27T00:54:16.084Z,97803.19
2022-08-27T00:57:25.801Z,97796.53
2022-08-27T01:00:31.947Z,97793.19
2022-08-27T01:03:39.617Z,97782.03
2022-08-27T01:06:45.504Z,97783.19
2022-08-27T01:09:56.713Z,97785.16
2022-08-27T01:13:03.370Z,97790.75
2022-08-27T01:16:12.426Z,97794.41
2022-08-27T01:19:25.015Z,97792.03
2022-08-27T01:22:39.504Z,97795.00
2022-08-27T01:25:49.012Z,97792.34
2022-08-27T01:28:56.745Z,97791.66
2022-08-27T01:32:10.387Z,97800.94
2022-08-27T01:35:18.285Z,97789.47
2022-08-27T01:38:30.788Z,97789.75
2022-08-27T01:41:41.190Z,97789.75
2022-08-27T01:44:50.131Z,97787.25
2022-08-27T01:47:57.408Z,97789.22
2022-08-27T01:51:03.525Z,97791.88
2022-08-27T01:54:11.146Z,97793.72
2022-08-27T01:57:24.062Z,97790.88
2022-08-27T02:00:35.022Z,97792.03
2022-08-27T02:03:43.103Z,97794.53
2022-08-27T02:06:50.087Z,97786.72
2022-08-27T02:09:56.560Z,97787.56
2022-08-27T02:13:07.282Z,97785.19
2022-08-27T02:16:13.534Z,97788.16
2022-08-27T02:19:21.765Z,97778.81
2022-08-27T02:22:28.052Z,97788.44
2022-08-27T02:25:35.171Z,97783.13
2022-08-27T02:28:44.012Z,97787.63
2022-08-27T02:31:50.985Z,97784.13
2022-08-27T02:34:57.106Z,97787.75
2022-08-27T02:38:06.145Z,97783.75
2022-08-27T02:41:12.103Z,97785.09
2022-08-27T02:44:21.673Z,97790.72
2022-08-27T02:47:27.805Z,97787.63
2022-08-27T02:50:35.918Z,97778.31
2022-08-27T02:53:44.540Z,97777.63
2022-08-27T02:56:53.215Z,97776.25
2022-08-27T03:00:03.133Z,97781.84
2022-08-27T03:03:10.883Z,97777.16
2022-08-27T03:06:17.314Z,97782.75
2022-08-27T03:09:24.708Z,97778.56
2022-08-27T03:12:30.640Z,97782.50
2022-08-27T03:15:40.361Z,97778.31
2022-08-27T03:18:46.261Z,97777.63
2022-08-27T03:21:54.655Z,97779.59
2022-08-27T03:25:01.210Z,97783.38
2022-08-27T03:28:22.561Z,97786.31
2022-08-27T03:31:32.342Z,97775.88
2022-08-27T03:34:39.222Z,97772.38
2022-08-27T03:37:45.345Z,97768.31
2022-08-27T03:40:52.622Z,97767.81
2022-08-27T03:43:58.727Z,97764.44
2022-08-27T03:47:09.704Z,97765.56
2022-08-27T03:50:15.843Z,97763.22
2022-08-27T03:53:23.558Z,97764.19
2022-08-27T03:56:29.442Z,97760.03
2022-08-27T03:59:36.718Z,97762.97
2022-08-27T04:02:46.581Z,97772.59
2022-08-27T04:05:56.830Z,97775.25
2022-08-27T04:09:03.408Z,97780.41
2022-08-27T04:12:11.980Z,97772.16
2022-08-27T04:15:17.915Z,97774.38
2022-08-27T04:18:27.654Z,97774.91
2022-08-27T04:21:34.069Z,97787.06
2022-08-27T04:24:41.274Z,97780.75
2022-08-27T04:27:48.302Z,97775.88
2022-08-27T04:30:55.085Z,97774.28
2022-08-27T04:34:05.214Z,97771.88
2022-08-27T04:37:11.978Z,97772.13
2022-08-27T04:40:17.985Z,97768.19
2022-08-27T04:43:25.331Z,97772.91
2022-08-27T04:46:33.383Z,97772.34
2022-08-27T04:49:43.761Z,97776.03
2022-08-27T04:52:49.871Z,97781.78
2022-08-27T04:55:59.378Z,97777.53
2022-08-27T04:59:10.226Z,97779.44
2022-08-27T05:02:17.842Z,97779.69
2022-08-27T05:05:26.672Z,97783.22
2022-08-27T05:08:34.246Z,97785.44
2022-08-27T05:11:42.279Z,97790.47
2022-08-27T05:14:49.076Z,97799.34
2022-08-27T05:17:55.186Z,97806.53
2022-08-27T05:21:06.187Z,97821.59
2022-08-27T05:24:12.594Z,97822.63
2022-08-27T05:27:19.619Z,97829.84
2022-08-27T05:30:25.779Z,97826.75
2022-08-27T05:33:33.518Z,97831.16
2022-08-27T05:36:49.133Z,97837.22
2022-08-27T05:39:56.527Z,97822.84
2022-08-27T05:43:03.111Z,97819.94
2022-08-27T05:46:12.320Z,97817.81
2022-08-27T05:49:18.713Z,97813.22
2022-08-27T05:52:29.054Z,97811.97
2022-08-27T05:55:40.389Z,97807.91
2022-08-27T05:59:03.359Z,97809.97
2022-08-27T06:02:09.710Z,97827.13
2022-08-27T06:05:16.855Z,97844.81
2022-08-27T06:08:26.221Z,97856.16
2022-08-27T06:11:33.057Z,97851.19
2022-08-27T06:14:39.805Z,97849.56
2022-08-27T06:17:46.508Z,97848.41
2022-08-27T06:20:52.637Z,97844.91
2022-08-27T06:24:03.368Z,97843.63
2022-08-27T06:27:09.610Z,97837.66
2022-08-27T06:30:17.662Z,97838.00
2022-08-27T06:33:23.959Z,97832.03
2022-08-27T06:36:32.762Z,97831.00
2022-08-27T06:39:42.467Z,97830.69
2022-08-27T06:42:50.016Z,97823.38
2022-08-27T06:45:56.710Z,97824.88
2022-08-27T06:49:06.470Z,97835.38
2022-08-27T06:52:12.801Z,97830.25
2022-08-27T06:55:22.545Z,97842.75
2022-08-27T06:58:28.385Z,97827.22
2022-08-27T07:01:37.775Z,97819.88
2022-08-27T07:04:43.718Z,97827.38
2022-08-27T07:07:50.826Z,97828.03
2022-08-27T07:11:03.132Z,97833.38
2022-08-27T07:14:11.836Z,97832.38
2022-08-27T07:17:17.768Z,97832.66
2022-08-27T07:20:25.589Z,97832.31
2022-08-27T07:23:31.454Z,97831.97
2022-08-27T07:26:44.600Z,97830.94
2022-08-27T07:29:50.849Z,97840.63
2022-08-27T07:32:57.691Z,97846.47
2022-08-27T07:36:04.192Z,97836.41
2022-08-27T07:39:14.119Z,97843.53
2022-08-27T07:42:53.486Z,97854.84
2022-08-27T07:46:05.126Z,97864.31
2022-08-27T07:49:11.311Z,97865.78
2022-08-27T07:52:18.667Z,97872.28
2022-08-27T07:55:24.504Z,97870.75
2022-08-27T07:58:34.054Z,97874.41
2022-08-27T08:01:42.796Z,97868.69
2022-08-27T08:04:49.932Z,97867.97
2022-08-27T08:07:56.096Z,97867.47
2022-08-27T08:11:04.014Z,97874.97
2022-08-27T08:14:12.790Z,97874.25
2022-08-27T08:17:19.545Z,97875.19
2022-08-27T08:20:54.315Z,97890.56
2022-08-27T08:23:52.473Z,97890.66
2022-08-27T08:26:58.345Z,97881.72
2022-08-27T08:30:10.499Z,97884.16
2022-08-27T08:33:17.411Z,97887.00
2022-08-27T08:36:24.179Z,97897.00
2022-08-27T08:39:30.108Z,97890.44
2022-08-27T08:42:50.557Z,97895.72
2022-08-27T08:46:08.092Z,97885.75
2022-08-27T08:49:24.648Z,97898.44
2022-08-27T08:52:42.975Z,97898.72
2022-08-27T08:55:54.818Z,97903.34
2022-08-27T08:59:06.208Z,97904.63
2022-08-27T09:02:18.434Z,97904.38
2022-08-27T09:05:27.469Z,97901.53
2022-08-27T09:08:41.386Z,97901.81
2022-08-27T09:11:56.401Z,97899.59
2022-08-27T09:15:09.354Z,97897.41
2022-08-27T09:18:21.686Z,97895.34
2022-08-27T09:21:39.328Z,97902.03
2022-08-27T09:24:56.184Z,97918.38
2022-08-27T09:28:27.668Z,97912.66
2022-08-27T09:31:41.111Z,97918.28
2022-08-27T09:34:52.287Z,97916.53
2022-08-27T09:38:00.093Z,97919.00
2022-08-27T09:41:11.499Z,97911.53
2022-08-27T09:44:23.064Z,97911.16
2022-08-27T09:47:30.461Z,97919.84
2022-08-27T09:50:43.837Z,97918.47
2022-08-27T09:53:54.924Z,97925.13
2022-08-27T09:57:01.143Z,97920.41
2022-08-27T10:00:12.660Z,97924.94
2022-08-27T10:03:18.875Z,97929.13
2022-08-27T10:06:34.113Z,97928.56
2022-08-27T10:09:50.862Z,97928.19
2022-08-27T10:13:10.599Z,97933.53
2022-08-27T10:16:39.726Z,97929.44
2022-08-27T10:19:58.226Z,97922.06
2022-08-27T10:23:21.171Z,97920.78
2022-08-27T10:26:33.684Z,97924.50
2022-08-27T10:29:50.395Z,97920.78
2022-08-27T10:33:07.628Z,97912.34
2022-08-27T10:36:29.702Z,97909.28
2022-08-27T10:39:53.076Z,97909.28
2022-08-27T10:43:14.319Z,97909.75
2022-08-27T10:46:50.552Z,97907.78
2022-08-27T10:50:13.385Z,97905.72
2022-08-27T10:54:06.010Z,97907.50
2022-08-27T10:57:53.194Z,97896.22
2022-08-27T11:00:51.598Z,97900.22
2022-08-27T11:04:03.511Z,97904.53
2022-08-27T11:07:17.848Z,97897.31
2022-08-27T11:10:28.473Z,97904.63
2022-08-27T11:13:41.464Z,97906.19
2022-08-27T11:16:53.002Z,97896.34
2022-08-27T11:20:07.024Z,97887.75
2022-08-27T11:23:18.393Z,97889.47
2022-08-27T11:26:25.117Z,97902.75
2022-08-27T11:29:38.190Z,97893.47
2022-08-27T11:32:58.163Z,97888.09
2022-08-27T11:36:33.625Z,97895.78
2022-08-27T11:39:55.009Z,97881.56
2022-08-27T11:43:07.453Z,97876.06
2022-08-27T11:46:26.558Z,97866.22
2022-08-27T11:49:46.814Z,97866.44
2022-08-27T11:53:12.931Z,97868.97
2022-08-27T11:56:24.363Z,97864.22
2022-08-27T11:59:36.930Z,97870.06
2022-08-27T12:02:46.060Z,97859.72
2022-08-27T12:06:11.738Z,97855.00
2022-08-27T12:09:20.750Z,97834.09
2022-08-27T12:12:37.497Z,97841.56
2022-08-27T12:16:03.463Z,97832.50
2022-08-27T12:19:25.966Z,97839.53
2022-08-27T12:23:04.637Z,97841.41
2022-08-27T12:26:35.722Z,97836.66
2022-08-27T12:29:44.832Z,97831.09
2022-08-27T12:32:54.697Z,97835.41
2022-08-27T12:36:12.363Z,97830.47
2022-08-27T12:39:22.431Z,97829.47
2022-08-27T12:42:29.013Z,97823.47
2022-08-27T12:45:36.421Z,97823.31
2022-08-27T12:48:48.276Z,97826.84
2022-08-27T12:51:59.101Z,97814.47
2022-08-27T12:55:16.297Z,97818.41
2022-08-27T12:58:32.312Z,97822.97
2022-08-27T13:01:56.025Z,97827.13
2022-08-27T13:05:10.485Z,97821.94
2022-08-27T13:08:30.112Z,97826.72
2022-08-27T13:11:46.402Z,97820.94
2022-08-27T13:14:56.992Z,97811.59
2022-08-27T13:18:07.210Z,97815.94
2022-08-27T13:21:19.950Z,97813.88
2022-08-27T13:24:35.424Z,97812.00
2022-08-27T13:27:41.684Z,97811.22
2022-08-27T13:30:50.445Z,97802.94
2022-08-27T13:33:59.482Z,97801.09
2022-08-27T13:37:09.780Z,97800.06
2022-08-27T13:40:31.785Z,97795.53
2022-08-27T13:43:42.215Z,97793.84
2022-08-27T13:46:51.628Z,97805.47
2022-08-27T13:50:07.844Z,97803.59
2022-08-27T13:53:30.544Z,97812.09
2022-08-27T13:56:42.564Z,97802.13
2022-08-27T13:59:50.079Z,97804.84
2022-08-27T14:02:59.043Z,97806.72
2022-08-27T14:06:06.466Z,97807.13
2022-08-27T14:09:20.046Z,97814.59
2022-08-27T14:12:35.491Z,97806.25
2022-08-27T14:15:44.754Z,97819.13
2022-08-27T14:18:59.210Z,97815.84
2022-08-27T14:22:06.959Z,97809.00
2022-08-27T14:25:13.197Z,97812.94
2022-08-27T14:28:24.077Z,97818.88
2022-08-27T14:31:29.965Z,97814.53
2022-08-27T14:34:37.528Z,97825.69
2022-08-27T14:37:45.170Z,97824.44
2022-08-27T14:40:54.866Z,97828.13
2022-08-27T14:44:03.854Z,97829.56
2022-08-27T14:47:14.855Z,97827.28
2022-08-27T14:50:21.313Z,97830.66
2022-08-27T14:53:29.023Z,97833.16
2022-08-27T14:56:35.054Z,97828.19
2022-08-27T14:59:44.631Z,97831.16
2022-08-27T15:02:52.277Z,97828.66
2022-08-27T15:05:59.977Z,97819.97
2022-08-27T15:09:08.059Z,97816.25
2022-08-27T15:12:26.342Z,97817.84
2022-08-27T15:15:35.559Z,97814.56
2022-08-27T15:18:42.350Z,97823.25
2022-08-27T15:22:06.460Z,97826.78
2022-08-27T15:25:14.199Z,97817.28
2022-08-27T15:28:20.148Z,97820.78
2022-08-27T15:31:29.879Z,97816.66
2022-08-27T15:34:35.888Z,97812.09
2022-08-27T15:37:44.177Z,97811.28
2022-08-27T15:40:50.272Z,97814.59
2022-08-27T15:43:57.214Z,97808.78
2022-08-27T15:47:06.520Z,97811.06
2022-08-27T15:50:14.160Z,97808.78
2022-08-27T15:53:25.131Z,97818.72
2022-08-27T15:56:34.568Z,97819.75
2022-08-27T15:59:40.769Z,97813.34
2022-08-27T16:02:51.313Z,97820.16
2022-08-27T16:05:57.336Z,97813.31
2022-08-27T16:09:07.628Z,97826.97
2022-08-27T16:12:26.900Z,97820.53
2022-08-27T16:15:36.350Z,97814.09
2022-08-27T16:18:46.643Z,97810.72
2022-08-27T16:21:54.323Z,97811.50
2022-08-27T16:25:00.820Z,97814.34
2022-08-27T16:28:08.471Z,97816.81
2022-08-27T16:31:16.405Z,97805.22
2022-08-27T16:34:30.274Z,97814.06
2022-08-27T16:37:36.234Z,97815.84
2022-08-27T16:40:45.914Z,97823.22
2022-08-27T16:43:52.345Z,97811.81
2022-08-27T16:47:00.914Z,97821.03
2022-08-27T16:50:27.199Z,97815.81
2022-08-27T16:53:36.523Z,97818.84
2022-08-27T16:56:43.628Z,97829.94
2022-08-27T16:59:55.118Z,97831.09
2022-08-27T17:03:01.221Z,97826.91
2022-08-27T17:06:12.745Z,97832.03
2022-08-27T17:09:18.823Z,97833.41
2022-08-27T17:12:26.111Z,97834.63
2022-08-27T17:15:32.555Z,97838.28
2022-08-27T17:18:40.436Z,97841.09
2022-08-27T17:21:50.292Z,97834.81
2022-08-27T17:24:57.037Z,97842.16
2022-08-27T17:28:03.379Z,97840.91
2022-08-27T17:31:11.689Z,97844.97
2022-08-27T17:34:20.956Z,97847.97
2022-08-27T17:37:30.507Z,97848.91
2022-08-27T17:40:36.679Z,97852.53
2022-08-27T17:43:43.869Z,97849.19
2022-08-27T17:46:50.242Z,97854.94
2022-08-27T17:49:58.619Z,97859.00
2022-08-27T17:53:07.561Z,97853.63
2022-08-27T17:56:14.293Z,97857.72
2022-08-27T17:59:20.770Z,97852.72
2022-08-27T18:02:33.321Z,97857.44
2022-08-27T18:05:39.177Z,97857.56
2022-08-27T18:08:48.855Z,97849.63
2022-08-27T18:11:56.535Z,97840.47
2022-08-27T18:15:10.268Z,97850.75
2022-08-27T18:18:20.531Z,97852.31
2022-08-27T18:21:27.320Z,97861.72
2022-08-27T18:24:37.179Z,97859.41
2022-08-27T18:27:47.827Z,97863.81
2022-08-27T18:30:54.280Z,97868.72
2022-08-27T18:34:03.945Z,97871.41
2022-08-27T18:37:10.062Z,97875.94
2022-08-27T18:40:22.595Z,97880.94
2022-08-27T18:43:35.177Z,97883.41
2022-08-27T18:46:56.843Z,97885.09
2022-08-27T18:50:03.349Z,97878.88
2022-08-27T18:53:10.405Z,97884.06
2022-08-27T18:56:21.862Z,97886.94
2022-08-27T18:59:28.841Z,97889.50
2022-08-27T19:02:36.037Z,97893.28
2022-08-27T19:05:43.340Z,97893.16
2022-08-27T19:08:50.171Z,97904.44
2022-08-27T19:12:00.239Z,97904.78
2022-08-27T19:15:09.332Z,97915.50
2022-08-27T19:18:16.177Z,97908.84
2022-08-27T19:21:22.102Z,97903.75
2022-08-27T19:24:29.491Z,97911.03
2022-08-27T19:27:39.606Z,97918.75
2022-08-27T19:30:46.760Z,97925.47
2022-08-27T19:33:53.116Z,97923.13
2022-08-27T19:37:03.018Z,97925.50
2022-08-27T19:40:10.174Z,97927.88
2022-08-27T19:43:21.457Z,97923.41
2022-08-27T19:46:29.266Z,97928.31
2022-08-27T19:49:36.834Z,97923.97
2022-08-27T19:52:42.717Z,97940.34
2022-08-27T19:55:50.306Z,97933.72
2022-08-27T19:59:08.734Z,97936.91
2022-08-27T20:02:24.104Z,97939.44
2022-08-27T20:05:30.061Z,97933.59
2022-08-27T20:08:36.894Z,97939.78
2022-08-27T20:11:43.493Z,97939.63
2022-08-27T20:14:53.458Z,97936.78
2022-08-27T20:18:03.027Z,97938.81
2022-08-27T20:21:10.343Z,97931.78
2022-08-27T20:24:16.700Z,97935.47
2022-08-27T20:27:23.592Z,97930.13
2022-08-27T20:30:34.251Z,97943.66
2022-08-27T20:33:41.071Z,97936.66
2022-08-27T20:36:47.027Z,97936.16
2022-08-27T20:39:56.933Z,97931.50
2022-08-27T20:43:03.827Z,97929.19
2022-08-27T20:46:15.056Z,97925.19
2022-08-27T20:49:21.789Z,97930.91
2022-08-27T20:52:29.004Z,97934.56
2022-08-27T20:55:35.228Z,97916.84
2022-08-27T20:58:57.552Z,97915.16
2022-08-27T21:02:10.724Z,97910.16
2022-08-27T21:05:21.110Z,97914.88
2022-08-27T21:08:27.017Z,97905.06
2022-08-27T21:11:33.752Z,97903.91
2022-08-27T21:14:40.083Z,97895.28
2022-08-27T21:18:06.062Z,97896.63
2022-08-27T21:21:15.494Z,97902.19
2022-08-27T21:24:23.075Z,97900.19
2022-08-27T21:27:28.998Z,97904.38
2022-08-27T21:30:36.259Z,97896.34
2022-08-27T21:33:45.230Z,97892.72
2022-08-27T21:36:52.238Z,97891.53
2022-08-27T21:39:58.234Z,97894.88
2022-08-27T21:43:07.432Z,97897.41
2022-08-27T21:46:13.482Z,97896.44
2022-08-27T21:49:23.123Z,97895.41
2022-08-27T21:52:29.066Z,97897.28
2022-08-27T21:55:37.721Z,97898.78
2022-08-27T21:58:44.267Z,97899.44
2022-08-27T22:02:00.180Z,97895.78
2022-08-27T22:05:11.852Z,97903.22
2022-08-27T22:08:21.169Z,97896.56
2022-08-27T22:11:27.602Z,97896.06
2022-08-27T22:14:37.562Z,97893.91
2022-08-27T22:17:47.144Z,97897.88
2022-08-27T22:20:59.129Z,97901.69
2022-08-27T22:24:06.228Z,97898.56
2022-08-27T22:27:12.994Z,97889.03
2022-08-27T22:30:19.233Z,97896.34
2022-08-27T22:33:26.044Z,97900.38
2022-08-27T22:36:35.260Z,97899.84
2022-08-27T22:39:41.946Z,97901.00
2022-08-27T22:42:48.507Z,97894.03
2022-08-27T22:45:55.244Z,97888.00
2022-08-27T22:49:01.368Z,97883.03
2022-08-27T22:52:11.850Z,97898.00
2022-08-27T22:55:20.414Z,97892.00
2022-08-27T22:58:27.278Z,97899.16
2022-08-27T23:01:33.602Z,97900.31
2022-08-27T23:04:54.574Z,97893.34
2022-08-27T23:08:04.221Z,97889.66
2022-08-27T23:11:11.200Z,97891.00
2022-08-27T23:14:17.219Z,97885.00
2022-08-27T23:17:24.410Z,97889.31
2022-08-27T23:20:33.131Z,97888.66
2022-08-27T23:23:42.784Z,97885.31
2022-08-27T23:27:04.345Z,97894.63
2022-08-27T23:30:13.357Z,97876.47
2022-08-27T23:33:19.274Z,97881.44
2022-08-27T23:36:26.918Z,97879.75
2022-08-27T23:39:35.584Z,97883.94
2022-08-27T23:42:43.838Z,97882.94
2022-08-27T23:45:50.460Z,97884.94
2022-08-27T23:48:57.870Z,97878.25
2022-08-27T23:52:03.774Z,97887.94
2022-08-27T23:55:15.332Z,97879.94
2022-08-27T23:58:21.361Z,97885.56
